KIDI

Indiana County / Jimmy Stewart Field / Airport

Indiana, Pennsylvania, USA
METAR KIDI 230055Z AUTO 00000KT 10SM OVC055 08/04 A3011 RMK A01
Observed Flight Rules
Oct-23 @ 00:55 UTC (6 minutes ago) Visual Flight Rules
Visibility Clouds
10 miles
  • Overcast at 5,500' AGL
Temperatures Readings
Current 8°C / 46°F
Dewpoint 4°C / 39°F
Humidity 76%
Altimeter 30.11" Hg
Pressure 1020 hPa
Elevation 429
METAR KIDI 230055Z AUTO 00000KT 10SM OVC055 08/04 A3011 RMK A01
Observed Flight Rules
Oct-23 @ 00:55 UTC
(6 minutes ago)
VFR
Clouds
  • Overcast at 5,500' AGL
Temperature Dewpoint
8°C / 46°F 4°C / 39°F
Humidity Altimeter Pressure
76% 30.11" Hg 1020 hPa